Time;durP1;ratioP1;P1;durP2;ratioP2;P2;SDS_P1;SDS_P2;PMS_P1;PMS_P2;Temp;Humidity;BMP_temperature;BMP_pressure;BME280_temperature;BME280_humidity;BME280_pressure;Samples;Min_cycle;Max_cycle;Signal;HPM_P1;HPM_P2
2022/06/12 00:01:06;;;;;;;9.93;2.93;;;;;;;;;;5116031;28;20919;-69
2022/06/12 00:03:34;;;;;;;9.13;3.63;;;;;;;;;;5115913;28;20440;-69
2022/06/12 00:06:02;;;;;;;13.03;4.20;;;;;;;;;;5116513;28;20431;-69
2022/06/12 00:08:31;;;;;;;7.07;2.90;;;;;;;;;;5115818;28;20531;-69
2022/06/12 00:10:59;;;;;;;10.20;3.37;;;;;;;;;;5116165;28;20446;-69
2022/06/12 00:13:28;;;;;;;10.63;3.83;;;;;;;;;;5115956;28;20567;-68
2022/06/12 00:15:56;;;;;;;12.33;3.80;;;;;;;;;;5115805;28;20793;-69
2022/06/12 00:18:24;;;;;;;9.80;3.23;;;;;;;;;;5115778;28;20445;-69
2022/06/12 00:21:10;;;;;;;15.73;4.23;;;;;;;;;;5116510;28;20537;-69
2022/06/12 00:23:37;;;;;;;10.00;3.93;;;;;;;;;;5116018;28;20485;-69
2022/06/12 00:26:05;;;;;;;15.33;3.70;;;;;;;;;;5115591;28;20447;-69
2022/06/12 00:28:32;;;;;;;8.60;4.33;;;;;;;;;;5115693;28;20925;-69
2022/06/12 00:30:59;;;;;;;12.80;3.97;;;;;;;;;;5115978;28;20878;-70
2022/06/12 00:33:26;;;;;;;11.20;4.50;;;;;;;;;;5115614;28;22796;-69
2022/06/12 00:35:55;;;;;;;11.30;4.30;;;;;;;;;;5115655;28;20448;-69
2022/06/12 00:38:22;;;;;;;14.67;4.43;;;;;;;;;;5115430;28;20788;-69
2022/06/12 00:40:49;;;;;;;15.67;5.93;;;;;;;;;;5115294;28;20447;-68
2022/06/12 00:43:17;;;;;;;13.90;4.30;;;;;;;;;;5115339;28;20929;-69
2022/06/12 00:45:49;;;;;;;7.80;3.50;;;;;;;;;;5115211;28;20535;-68
2022/06/12 00:48:18;;;;;;;6.90;3.53;;;;;;;;;;5115728;28;20452;-69
2022/06/12 00:50:47;;;;;;;11.33;4.10;;;;;;;;;;5132110;27;20476;-68
2022/06/12 00:53:18;;;;;;;16.53;5.13;;;;;;;;;;5136043;27;20443;-69
2022/06/12 00:55:50;;;;;;;13.40;4.90;;;;;;;;;;5136062;27;20427;-68
2022/06/12 00:58:19;;;;;;;12.80;4.50;;;;;;;;;;5136046;27;20439;-68
2022/06/12 01:00:47;;;;;;;9.93;4.43;;;;;;;;;;5135774;27;20446;-68
2022/06/12 01:03:15;;;;;;;11.87;4.50;;;;;;;;;;5135999;27;20444;-68
2022/06/12 01:08:29;;;;;;;11.27;4.80;;;;;;;;;;5135343;27;20402;-69
2022/06/12 01:10:59;;;;;;;12.13;4.40;;;;;;;;;;5134939;27;20435;-69
2022/06/12 01:13:27;;;;;;;10.90;5.33;;;;;;;;;;5135032;27;20435;-68
2022/06/12 01:15:57;;;;;;;8.33;4.20;;;;;;;;;;5135404;27;20517;-69
2022/06/12 01:18:26;;;;;;;8.43;4.63;;;;;;;;;;5135426;27;20533;-69
2022/06/12 01:20:57;;;;;;;11.27;4.83;;;;;;;;;;5135051;27;20953;-68
2022/06/12 01:23:45;;;;;;;9.80;4.97;;;;;;;;;;5134968;27;20996;-70
2022/06/12 01:26:27;;;;;;;10.60;4.47;;;;;;;;;;5135397;27;20476;-68
2022/06/12 01:28:58;;;;;;;11.83;4.43;;;;;;;;;;5135171;27;20515;-68
2022/06/12 01:31:37;;;;;;;12.40;4.63;;;;;;;;;;5135422;27;20523;-69
2022/06/12 01:34:09;;;;;;;10.03;4.23;;;;;;;;;;5135475;27;20460;-68
2022/06/12 01:36:42;;;;;;;10.60;4.30;;;;;;;;;;5135945;27;20411;-69
2022/06/12 01:39:13;;;;;;;8.70;5.40;;;;;;;;;;5134913;27;20438;-68
2022/06/12 01:41:46;;;;;;;13.00;4.40;;;;;;;;;;5135095;27;20519;-68
2022/06/12 01:44:17;;;;;;;10.50;5.23;;;;;;;;;;5135434;27;20432;-68
2022/06/12 01:46:52;;;;;;;11.57;5.20;;;;;;;;;;5135124;27;20523;-68
2022/06/12 01:49:22;;;;;;;14.53;5.00;;;;;;;;;;5134206;27;21006;-68
2022/06/12 01:51:52;;;;;;;9.60;5.03;;;;;;;;;;5134909;27;20513;-68
2022/06/12 01:54:22;;;;;;;8.63;4.47;;;;;;;;;;5134604;27;20561;-69
2022/06/12 01:56:52;;;;;;;12.97;4.70;;;;;;;;;;5134452;27;20939;-68
2022/06/12 01:59:24;;;;;;;12.20;4.93;;;;;;;;;;5134275;27;20438;-68
2022/06/12 02:01:55;;;;;;;10.80;5.13;;;;;;;;;;5135445;27;20432;-69
2022/06/12 02:04:26;;;;;;;9.37;4.30;;;;;;;;;;5134563;27;20439;-69
2022/06/12 02:06:58;;;;;;;11.47;5.53;;;;;;;;;;5134304;27;20468;-68
2022/06/12 02:09:29;;;;;;;11.97;4.10;;;;;;;;;;5134863;27;20462;-68
2022/06/12 02:14:49;;;;;;;15.07;5.33;;;;;;;;;;5134248;27;20518;-69
2022/06/12 02:17:19;;;;;;;13.43;4.43;;;;;;;;;;5134195;27;20906;-69
2022/06/12 02:19:48;;;;;;;11.27;4.40;;;;;;;;;;5134641;28;20525;-69
2022/06/12 02:22:18;;;;;;;14.27;4.80;;;;;;;;;;5133882;27;20448;-69
2022/06/12 02:24:47;;;;;;;7.60;4.30;;;;;;;;;;5134692;28;20876;-69
2022/06/12 02:27:16;;;;;;;14.50;5.00;;;;;;;;;;5134571;28;20530;-70
2022/06/12 02:29:46;;;;;;;10.50;4.80;;;;;;;;;;5134023;28;20898;-69
2022/06/12 02:32:15;;;;;;;13.17;4.63;;;;;;;;;;5134647;28;20519;-69
2022/06/12 02:34:44;;;;;;;14.40;5.70;;;;;;;;;;5134387;28;20470;-69
2022/06/12 02:37:17;;;;;;;9.13;4.50;;;;;;;;;;5134014;28;20438;-69
2022/06/12 02:39:46;;;;;;;8.43;4.90;;;;;;;;;;5134376;28;20509;-69
2022/06/12 02:42:15;;;;;;;10.03;4.10;;;;;;;;;;5134245;28;20462;-69
2022/06/12 02:44:45;;;;;;;9.00;4.73;;;;;;;;;;5133824;28;21044;-69
2022/06/12 02:47:15;;;;;;;11.77;5.90;;;;;;;;;;5134056;28;20525;-69
2022/06/12 02:49:44;;;;;;;10.93;4.33;;;;;;;;;;5133809;28;20460;-69
2022/06/12 02:52:16;;;;;;;13.07;5.10;;;;;;;;;;5133872;28;20503;-70
2022/06/12 02:54:52;;;;;;;11.53;5.00;;;;;;;;;;5133726;28;20458;-69
2022/06/12 02:57:24;;;;;;;11.43;5.20;;;;;;;;;;5134146;28;20478;-69
2022/06/12 03:00:00;;;;;;;8.70;5.03;;;;;;;;;;5133957;28;20468;-69
2022/06/12 03:02:32;;;;;;;11.70;4.80;;;;;;;;;;5134415;28;20802;-69
2022/06/12 03:05:02;;;;;;;16.20;7.50;;;;;;;;;;5134427;28;20783;-69
2022/06/12 03:07:30;;;;;;;12.90;6.63;;;;;;;;;;5133699;28;20475;-69
2022/06/12 03:09:58;;;;;;;11.77;4.97;;;;;;;;;;5133864;28;20474;-69
2022/06/12 03:12:28;;;;;;;11.23;4.80;;;;;;;;;;5133968;28;20441;-69
2022/06/12 03:14:55;;;;;;;9.80;4.80;;;;;;;;;;5134389;28;20478;-69
2022/06/12 03:17:22;;;;;;;7.60;4.70;;;;;;;;;;5134297;28;20448;-69
2022/06/12 03:19:54;;;;;;;19.03;6.03;;;;;;;;;;5133737;28;20479;-69
2022/06/12 03:22:25;;;;;;;11.50;6.70;;;;;;;;;;5134211;28;20429;-69
2022/06/12 03:25:01;;;;;;;10.93;5.73;;;;;;;;;;5134275;28;20438;-69
2022/06/12 03:27:35;;;;;;;9.23;5.20;;;;;;;;;;5133556;28;20434;-69
2022/06/12 03:30:06;;;;;;;11.93;4.33;;;;;;;;;;5133489;28;20429;-69
2022/06/12 03:32:36;;;;;;;7.60;4.80;;;;;;;;;;5135133;27;20441;-69
2022/06/12 03:35:09;;;;;;;7.57;5.13;;;;;;;;;;5137499;27;20488;-69
2022/06/12 03:37:40;;;;;;;12.40;4.87;;;;;;;;;;5137202;27;20434;-69
2022/06/12 03:40:10;;;;;;;11.67;5.17;;;;;;;;;;5137005;27;20516;-69
2022/06/12 03:42:42;;;;;;;13.70;5.23;;;;;;;;;;5137295;27;20447;-70
2022/06/12 03:45:11;;;;;;;30.33;5.57;;;;;;;;;;5137298;27;20508;-69
2022/06/12 03:47:45;;;;;;;12.53;5.30;;;;;;;;;;5136838;27;21119;-69
2022/06/12 03:50:15;;;;;;;18.93;6.30;;;;;;;;;;5136589;27;20558;-69
2022/06/12 03:52:46;;;;;;;17.13;5.23;;;;;;;;;;5137716;27;20433;-69
2022/06/12 03:55:19;;;;;;;15.07;5.67;;;;;;;;;;5137460;27;20484;-69
2022/06/12 03:57:53;;;;;;;13.83;4.97;;;;;;;;;;5136992;27;20424;-69
2022/06/12 04:00:24;;;;;;;9.40;5.60;;;;;;;;;;5137206;27;20433;-69
2022/06/12 04:02:53;;;;;;;12.30;5.40;;;;;;;;;;5137115;27;20420;-71
2022/06/12 04:05:23;;;;;;;10.07;5.37;;;;;;;;;;5136918;27;20439;-69
2022/06/12 04:07:52;;;;;;;10.53;6.50;;;;;;;;;;5136457;27;20430;-70
2022/06/12 04:10:20;;;;;;;9.07;5.50;;;;;;;;;;5136693;27;20543;-69
2022/06/12 04:12:48;;;;;;;12.83;6.00;;;;;;;;;;5137199;27;20467;-70
2022/06/12 04:15:16;;;;;;;12.90;6.30;;;;;;;;;;5134770;27;20484;-69
2022/06/12 04:17:44;;;;;;;14.97;5.70;;;;;;;;;;5136023;27;20460;-69
2022/06/12 04:20:14;;;;;;;10.67;5.30;;;;;;;;;;5136210;27;20474;-69
2022/06/12 04:22:47;;;;;;;13.97;5.90;;;;;;;;;;5136417;27;20442;-69
2022/06/12 04:25:29;;;;;;;13.70;6.40;;;;;;;;;;5136012;27;20493;-69
2022/06/12 04:27:57;;;;;;;14.33;5.63;;;;;;;;;;5136073;27;20509;-69
2022/06/12 04:30:25;;;;;;;12.70;6.30;;;;;;;;;;5135530;27;20451;-69
2022/06/12 04:32:59;;;;;;;8.60;5.50;;;;;;;;;;5135932;27;20447;-69
2022/06/12 04:35:26;;;;;;;13.60;5.40;;;;;;;;;;5135694;27;20472;-69
2022/06/12 04:37:54;;;;;;;12.50;4.70;;;;;;;;;;5136423;27;20482;-70
2022/06/12 04:40:25;;;;;;;11.40;5.97;;;;;;;;;;5135958;27;20800;-68
2022/06/12 04:42:53;;;;;;;18.67;6.93;;;;;;;;;;5135758;27;20521;-69
2022/06/12 04:45:20;;;;;;;14.80;5.70;;;;;;;;;;5131445;27;20478;-69
2022/06/12 04:47:48;;;;;;;15.20;6.07;;;;;;;;;;5115722;28;20459;-69
2022/06/12 04:50:16;;;;;;;12.83;5.33;;;;;;;;;;5115295;28;20513;-69
2022/06/12 04:52:43;;;;;;;10.90;6.33;;;;;;;;;;5115242;28;20537;-69
2022/06/12 04:55:12;;;;;;;10.83;5.23;;;;;;;;;;5115023;28;20471;-70
2022/06/12 04:57:40;;;;;;;17.80;4.97;;;;;;;;;;5114695;28;20441;-70
2022/06/12 05:00:09;;;;;;;10.10;5.13;;;;;;;;;;5114778;28;20454;-69
2022/06/12 05:02:36;;;;;;;13.00;5.30;;;;;;;;;;5114700;28;20445;-70
2022/06/12 05:05:06;;;;;;;10.30;5.80;;;;;;;;;;5114695;28;20428;-70
2022/06/12 05:07:34;;;;;;;9.67;5.00;;;;;;;;;;5114534;28;20528;-70
2022/06/12 05:10:01;;;;;;;13.90;4.90;;;;;;;;;;5114617;28;20794;-70
2022/06/12 05:12:30;;;;;;;10.50;6.00;;;;;;;;;;5114526;28;20539;-70
2022/06/12 05:14:57;;;;;;;10.70;4.30;;;;;;;;;;5114355;28;20515;-69
2022/06/12 05:17:25;;;;;;;10.03;4.90;;;;;;;;;;5114606;28;20534;-69
2022/06/12 05:19:53;;;;;;;18.90;5.30;;;;;;;;;;5114465;28;20451;-70
2022/06/12 05:22:22;;;;;;;8.53;5.00;;;;;;;;;;5114327;28;20483;-69
2022/06/12 05:24:50;;;;;;;9.20;4.77;;;;;;;;;;5114846;28;20486;-70
2022/06/12 05:27:18;;;;;;;13.80;5.20;;;;;;;;;;5114086;28;20534;-70
2022/06/12 05:29:47;;;;;;;10.53;4.80;;;;;;;;;;5114257;28;20913;-70
2022/06/12 05:32:16;;;;;;;8.03;4.37;;;;;;;;;;5114102;28;20970;-69
2022/06/12 05:34:43;;;;;;;13.80;4.20;;;;;;;;;;5114221;28;20434;-70
2022/06/12 05:37:11;;;;;;;9.53;4.27;;;;;;;;;;5114474;28;20527;-69
2022/06/12 05:39:38;;;;;;;4.90;3.17;;;;;;;;;;5114387;28;20446;-69
2022/06/12 05:42:06;;;;;;;7.23;3.80;;;;;;;;;;5114137;28;20444;-70
2022/06/12 05:44:33;;;;;;;12.07;4.13;;;;;;;;;;5114168;28;20450;-69
2022/06/12 05:47:02;;;;;;;8.53;2.80;;;;;;;;;;5113945;28;20447;-69
2022/06/12 05:49:30;;;;;;;5.03;2.80;;;;;;;;;;5113642;28;20503;-69
2022/06/12 05:51:57;;;;;;;10.27;3.40;;;;;;;;;;5114237;28;20539;-69
2022/06/12 05:54:24;;;;;;;8.23;2.40;;;;;;;;;;5114327;28;20526;-70
2022/06/12 05:56:51;;;;;;;5.07;2.70;;;;;;;;;;5113178;28;21036;-70
2022/06/12 05:59:19;;;;;;;5.40;2.20;;;;;;;;;;5113954;28;20530;-70
2022/06/12 06:01:46;;;;;;;4.90;2.40;;;;;;;;;;5113675;28;20480;-70
2022/06/12 06:04:16;;;;;;;7.13;2.40;;;;;;;;;;5113627;28;20521;-70
2022/06/12 06:06:45;;;;;;;3.73;2.10;;;;;;;;;;5113830;28;20575;-69
2022/06/12 06:09:13;;;;;;;5.20;1.70;;;;;;;;;;5113838;28;20519;-69
2022/06/12 06:11:42;;;;;;;5.40;2.03;;;;;;;;;;5113580;28;20530;-70
2022/06/12 06:14:10;;;;;;;8.03;2.33;;;;;;;;;;5113966;28;20891;-68
2022/06/12 06:16:37;;;;;;;7.90;2.00;;;;;;;;;;5113490;28;20553;-69
2022/06/12 06:19:05;;;;;;;2.80;1.80;;;;;;;;;;5113359;28;20456;-71
2022/06/12 06:21:33;;;;;;;4.53;2.37;;;;;;;;;;5113945;28;20527;-70
2022/06/12 06:24:01;;;;;;;4.17;2.00;;;;;;;;;;5113196;28;20539;-73
2022/06/12 06:26:28;;;;;;;3.83;1.97;;;;;;;;;;5113025;28;20539;-71
2022/06/12 06:28:57;;;;;;;5.13;2.17;;;;;;;;;;5113459;28;20520;-71
2022/06/12 06:31:24;;;;;;;4.70;2.00;;;;;;;;;;5113291;28;20447;-71
2022/06/12 06:33:52;;;;;;;6.27;2.90;;;;;;;;;;5113651;28;20526;-70
2022/06/12 06:36:19;;;;;;;7.63;2.20;;;;;;;;;;5113958;28;20472;-71
2022/06/12 06:38:48;;;;;;;6.10;1.90;;;;;;;;;;5125302;28;20521;-72
2022/06/12 06:41:15;;;;;;;5.20;2.30;;;;;;;;;;5133961;28;20520;-71
2022/06/12 06:46:27;;;;;;;6.20;2.13;;;;;;;;;;5134198;28;20921;-71
2022/06/12 06:48:55;;;;;;;7.23;1.80;;;;;;;;;;5133942;28;20451;-71
2022/06/12 06:51:23;;;;;;;7.03;2.13;;;;;;;;;;5134255;28;20428;-72
2022/06/12 06:53:52;;;;;;;11.07;3.17;;;;;;;;;;5133540;28;20492;-71
2022/06/12 06:56:19;;;;;;;9.97;2.93;;;;;;;;;;5133503;28;20705;-70
2022/06/12 06:58:47;;;;;;;6.50;2.30;;;;;;;;;;5133848;28;20800;-71
2022/06/12 07:01:14;;;;;;;9.17;2.53;;;;;;;;;;5133707;28;20443;-72
2022/06/12 07:03:41;;;;;;;7.00;2.80;;;;;;;;;;5133810;28;20475;-71
2022/06/12 07:06:11;;;;;;;5.70;2.20;;;;;;;;;;5133940;28;20797;-71
2022/06/12 07:08:38;;;;;;;7.20;2.80;;;;;;;;;;5136248;27;20439;-71
2022/06/12 07:11:07;;;;;;;4.40;2.27;;;;;;;;;;5138072;27;20828;-72
2022/06/12 07:13:34;;;;;;;6.10;2.47;;;;;;;;;;5137628;27;20546;-70
2022/06/12 07:16:01;;;;;;;9.30;3.03;;;;;;;;;;5137315;27;20470;-71
2022/06/12 07:18:28;;;;;;;10.40;2.90;;;;;;;;;;5137812;27;20557;-71
2022/06/12 07:20:57;;;;;;;8.40;2.63;;;;;;;;;;5137298;27;20440;-71
2022/06/12 07:23:26;;;;;;;7.10;2.47;;;;;;;;;;5137380;27;20488;-71
2022/06/12 07:25:54;;;;;;;9.77;2.17;;;;;;;;;;5137521;27;20522;-71
2022/06/12 07:28:23;;;;;;;4.43;2.83;;;;;;;;;;5137376;27;20435;-71
2022/06/12 07:30:51;;;;;;;7.10;2.60;;;;;;;;;;5137796;27;20475;-71
2022/06/12 07:33:18;;;;;;;7.03;2.57;;;;;;;;;;5137342;27;20878;-71
2022/06/12 07:35:46;;;;;;;10.13;2.30;;;;;;;;;;5137149;27;20475;-71
2022/06/12 07:38:14;;;;;;;5.83;2.27;;;;;;;;;;5137136;27;20434;-71
2022/06/12 07:40:43;;;;;;;5.50;2.23;;;;;;;;;;5137010;27;20530;-71
2022/06/12 07:43:11;;;;;;;7.03;2.70;;;;;;;;;;5137308;27;20525;-71
2022/06/12 07:45:40;;;;;;;4.00;2.33;;;;;;;;;;5137086;27;20463;-71
2022/06/12 07:48:08;;;;;;;4.20;2.50;;;;;;;;;;5136641;27;20450;-71
2022/06/12 07:50:37;;;;;;;12.00;2.80;;;;;;;;;;5137545;27;20550;-71
2022/06/12 07:53:05;;;;;;;9.10;2.80;;;;;;;;;;5136708;27;20452;-72
2022/06/12 07:55:32;;;;;;;7.07;2.43;;;;;;;;;;5136581;27;20521;-71
2022/06/12 07:57:59;;;;;;;7.47;2.80;;;;;;;;;;5137083;27;20482;-71
2022/06/12 08:00:27;;;;;;;6.00;2.63;;;;;;;;;;5136558;27;21006;-72
2022/06/12 08:02:55;;;;;;;2.83;2.30;;;;;;;;;;5136626;27;20515;-72
2022/06/12 08:05:23;;;;;;;5.20;2.60;;;;;;;;;;5136357;27;20633;-72
2022/06/12 08:07:50;;;;;;;7.13;2.60;;;;;;;;;;5136421;27;20527;-71
2022/06/12 08:10:18;;;;;;;5.23;2.40;;;;;;;;;;5136560;27;20466;-71
2022/06/12 08:12:46;;;;;;;6.67;2.70;;;;;;;;;;5136596;27;20445;-71
2022/06/12 08:15:15;;;;;;;6.87;2.17;;;;;;;;;;5136580;27;20531;-71
2022/06/12 08:17:43;;;;;;;5.47;2.50;;;;;;;;;;5136592;27;20518;-71
2022/06/12 08:20:30;;;;;;;4.00;2.20;;;;;;;;;;5135042;27;20546;-71
2022/06/12 08:22:58;;;;;;;2.03;1.73;;;;;;;;;;5136086;27;20512;-71
2022/06/12 08:25:26;;;;;;;4.20;2.20;;;;;;;;;;5136264;27;20439;-71
2022/06/12 08:27:53;;;;;;;2.80;1.90;;;;;;;;;;5135963;27;20490;-72
2022/06/12 08:30:21;;;;;;;5.10;1.97;;;;;;;;;;5135878;27;20535;-71
2022/06/12 08:32:49;;;;;;;11.37;2.77;;;;;;;;;;5136482;27;20475;-72
2022/06/12 08:35:20;;;;;;;5.90;2.20;;;;;;;;;;5135909;27;20495;-71
2022/06/12 08:37:47;;;;;;;4.83;2.77;;;;;;;;;;5135944;27;20550;-71
2022/06/12 08:40:18;;;;;;;4.93;2.20;;;;;;;;;;5136129;27;20531;-71
2022/06/12 08:42:48;;;;;;;3.87;2.50;;;;;;;;;;5135867;27;20516;-71
2022/06/12 08:45:17;;;;;;;2.83;2.10;;;;;;;;;;5135960;27;20435;-72
2022/06/12 08:47:47;;;;;;;5.43;2.60;;;;;;;;;;5135792;27;20990;-71
2022/06/12 08:50:18;;;;;;;3.33;1.90;;;;;;;;;;5135741;27;21064;-73
2022/06/12 08:52:49;;;;;;;4.67;1.90;;;;;;;;;;5135836;27;20527;-72
2022/06/12 08:55:20;;;;;;;5.03;1.80;;;;;;;;;;5136037;27;20512;-70
2022/06/12 08:57:52;;;;;;;2.60;1.83;;;;;;;;;;5135425;27;20479;-70
2022/06/12 09:00:22;;;;;;;5.67;2.07;;;;;;;;;;5136052;27;20513;-71
2022/06/12 09:02:49;;;;;;;4.60;2.30;;;;;;;;;;5135489;27;20515;-71
2022/06/12 09:05:18;;;;;;;5.27;2.20;;;;;;;;;;5136083;27;20462;-71
2022/06/12 09:07:50;;;;;;;3.67;1.80;;;;;;;;;;5135656;27;20996;-71
2022/06/12 09:10:24;;;;;;;5.20;2.33;;;;;;;;;;5135555;27;20457;-71
2022/06/12 09:12:55;;;;;;;5.10;2.73;;;;;;;;;;5136008;27;20456;-71
2022/06/12 09:15:25;;;;;;;6.30;2.60;;;;;;;;;;5135101;27;20430;-71
2022/06/12 09:17:57;;;;;;;7.47;2.20;;;;;;;;;;5135528;27;20499;-71
2022/06/12 09:20:32;;;;;;;4.30;2.33;;;;;;;;;;5135032;27;20517;-71
2022/06/12 09:23:03;;;;;;;4.80;2.20;;;;;;;;;;5135484;27;20543;-72
2022/06/12 09:25:33;;;;;;;4.17;2.03;;;;;;;;;;5134862;27;20512;-70
2022/06/12 09:28:03;;;;;;;3.83;2.33;;;;;;;;;;5134804;27;20957;-71
2022/06/12 09:30:35;;;;;;;2.47;1.90;;;;;;;;;;5134786;27;20445;-71
2022/06/12 09:33:08;;;;;;;6.73;2.10;;;;;;;;;;5135109;27;20535;-71
2022/06/12 09:35:43;;;;;;;5.30;2.07;;;;;;;;;;5134665;27;20469;-70
2022/06/12 09:38:18;;;;;;;7.23;2.37;;;;;;;;;;5134655;27;20493;-71
2022/06/12 09:40:52;;;;;;;6.30;2.67;;;;;;;;;;5134954;27;20453;-72
2022/06/12 09:43:26;;;;;;;5.43;2.30;;;;;;;;;;5134595;27;20421;-70
2022/06/12 09:45:57;;;;;;;8.73;2.23;;;;;;;;;;5134734;27;20433;-70
2022/06/12 09:48:29;;;;;;;7.33;2.77;;;;;;;;;;5134630;27;20498;-72
2022/06/12 09:51:04;;;;;;;7.43;2.50;;;;;;;;;;5135201;27;20472;-72
2022/06/12 09:53:42;;;;;;;6.17;2.73;;;;;;;;;;5134872;27;20417;-71
2022/06/12 09:56:12;;;;;;;5.60;2.93;;;;;;;;;;5134948;27;20487;-73
2022/06/12 09:58:42;;;;;;;5.47;2.23;;;;;;;;;;5134312;27;20469;-72
2022/06/12 10:01:11;;;;;;;5.47;2.07;;;;;;;;;;5134342;27;20524;-72
2022/06/12 10:03:40;;;;;;;7.70;2.90;;;;;;;;;;5134588;27;20528;-72
2022/06/12 10:06:12;;;;;;;6.33;2.27;;;;;;;;;;5134773;27;20521;-72
2022/06/12 10:08:49;;;;;;;4.97;2.30;;;;;;;;;;5134884;27;20431;-71
2022/06/12 10:11:19;;;;;;;5.47;2.10;;;;;;;;;;5133385;27;20531;-71
2022/06/12 10:13:48;;;;;;;5.30;2.30;;;;;;;;;;5134446;27;20958;-71
2022/06/12 10:16:20;;;;;;;9.80;3.00;;;;;;;;;;5133914;27;20433;-72
2022/06/12 10:18:50;;;;;;;5.43;2.83;;;;;;;;;;5134476;27;20541;-72
2022/06/12 10:21:21;;;;;;;6.90;2.60;;;;;;;;;;5134137;28;20441;-72
2022/06/12 10:23:49;;;;;;;5.30;2.50;;;;;;;;;;5134511;28;20426;-72
2022/06/12 10:26:19;;;;;;;5.27;2.10;;;;;;;;;;5133847;28;20533;-71
2022/06/12 10:28:46;;;;;;;11.30;3.70;;;;;;;;;;5133949;28;20517;-72
2022/06/12 10:31:21;;;;;;;5.67;2.23;;;;;;;;;;5133628;28;20520;-71
2022/06/12 10:33:50;;;;;;;6.73;2.63;;;;;;;;;;5134504;28;20426;-70
2022/06/12 10:36:20;;;;;;;5.43;2.47;;;;;;;;;;5133756;28;20445;-71
2022/06/12 10:38:48;;;;;;;7.90;2.13;;;;;;;;;;5134177;28;20772;-70
2022/06/12 10:41:24;;;;;;;5.77;2.30;;;;;;;;;;5133657;28;20537;-71
2022/06/12 10:43:52;;;;;;;8.43;3.00;;;;;;;;;;5137585;27;20437;-71
2022/06/12 10:46:22;;;;;;;5.93;2.60;;;;;;;;;;5138068;27;20445;-72
2022/06/12 10:48:57;;;;;;;9.50;2.53;;;;;;;;;;5138160;27;20532;-70
2022/06/12 10:51:26;;;;;;;6.40;3.07;;;;;;;;;;5138119;27;20508;-72
2022/06/12 10:53:59;;;;;;;3.93;2.40;;;;;;;;;;5138240;27;20469;-71
2022/06/12 10:56:32;;;;;;;12.77;3.10;;;;;;;;;;5138185;27;20473;-71
2022/06/12 10:59:09;;;;;;;10.40;3.13;;;;;;;;;;5138395;27;20428;-70
2022/06/12 11:01:40;;;;;;;9.73;2.87;;;;;;;;;;5138416;27;20425;-72
2022/06/12 11:04:20;;;;;;;5.60;2.77;;;;;;;;;;5138244;27;20824;-71
2022/06/12 11:06:50;;;;;;;5.47;2.33;;;;;;;;;;5138017;27;20522;-72
2022/06/12 11:09:32;;;;;;;6.37;2.20;;;;;;;;;;5138012;27;20441;-71
2022/06/12 11:12:04;;;;;;;4.80;2.47;;;;;;;;;;5137638;27;20498;-71
2022/06/12 11:14:37;;;;;;;7.90;2.30;;;;;;;;;;5138158;27;20465;-71
2022/06/12 11:17:10;;;;;;;4.60;2.33;;;;;;;;;;5137605;27;20471;-70
2022/06/12 11:19:44;;;;;;;4.50;2.30;;;;;;;;;;5137577;27;20995;-71
2022/06/12 11:22:16;;;;;;;4.73;2.10;;;;;;;;;;5137910;27;20769;-71
2022/06/12 11:24:49;;;;;;;6.60;2.40;;;;;;;;;;5137918;27;20480;-72
2022/06/12 11:27:30;;;;;;;7.83;2.30;;;;;;;;;;5137685;27;20450;-70
2022/06/12 11:30:03;;;;;;;6.67;2.57;;;;;;;;;;5137110;27;20947;-70
2022/06/12 11:32:38;;;;;;;6.00;2.53;;;;;;;;;;5137074;27;20975;-72
2022/06/12 11:35:10;;;;;;;4.13;2.10;;;;;;;;;;5137341;27;20423;-69
2022/06/12 11:37:48;;;;;;;10.60;2.60;;;;;;;;;;5137080;27;20473;-70
2022/06/12 11:40:21;;;;;;;9.87;2.27;;;;;;;;;;5137470;27;20527;-71
2022/06/12 11:43:00;;;;;;;7.33;2.33;;;;;;;;;;5136854;27;20515;-70
2022/06/12 11:45:32;;;;;;;9.47;3.00;;;;;;;;;;5136818;27;20791;-70
2022/06/12 11:48:07;;;;;;;5.10;2.70;;;;;;;;;;5136913;27;20549;-70
2022/06/12 11:50:37;;;;;;;4.73;2.50;;;;;;;;;;5136614;27;20498;-70
2022/06/12 11:53:14;;;;;;;9.30;2.90;;;;;;;;;;5137229;27;20439;-70
2022/06/12 11:55:43;;;;;;;8.57;2.77;;;;;;;;;;5136442;27;20509;-70
2022/06/12 11:58:20;;;;;;;8.90;3.13;;;;;;;;;;5136862;27;20560;-70
2022/06/12 12:00:54;;;;;;;8.70;3.40;;;;;;;;;;5136834;27;20512;-70
2022/06/12 12:03:38;;;;;;;6.93;3.30;;;;;;;;;;5136198;27;20507;-70
2022/06/12 12:06:11;;;;;;;10.67;2.40;;;;;;;;;;5136262;27;20471;-70
2022/06/12 12:08:50;;;;;;;4.60;2.53;;;;;;;;;;5136141;27;20428;-70
2022/06/12 12:11:19;;;;;;;10.83;3.47;;;;;;;;;;5136075;27;20510;-70
2022/06/12 12:13:51;;;;;;;7.20;2.63;;;;;;;;;;5136394;27;20474;-72
2022/06/12 12:16:26;;;;;;;17.37;11.40;;;;;;;;;;5136152;27;20428;-71
2022/06/12 12:18:55;;;;;;;3.10;2.50;;;;;;;;;;5136325;27;20528;-71
2022/06/12 12:21:30;;;;;;;6.63;2.70;;;;;;;;;;5135870;27;20527;-71
2022/06/12 12:23:57;;;;;;;6.60;2.47;;;;;;;;;;5136337;27;20531;-71
2022/06/12 12:26:28;;;;;;;8.53;3.33;;;;;;;;;;5136408;27;20532;-71
2022/06/12 12:28:58;;;;;;;7.67;3.60;;;;;;;;;;5136193;27;20459;-71
2022/06/12 12:31:26;;;;;;;7.33;3.60;;;;;;;;;;5136050;27;20423;-71
2022/06/12 12:33:54;;;;;;;8.00;3.70;;;;;;;;;;5136244;27;20433;-72
2022/06/12 12:41:54;;;;;;;9.83;3.33;;;;;;;;;;5136071;27;20407;-71
2022/06/12 12:44:31;;;;;;;4.23;2.60;;;;;;;;;;5135904;27;20444;-71
2022/06/12 12:46:59;;;;;;;5.93;2.90;;;;;;;;;;5136041;27;20511;-71
2022/06/12 12:49:27;;;;;;;7.17;3.73;;;;;;;;;;5117091;27;20466;-71
2022/06/12 12:52:05;;;;;;;4.17;3.13;;;;;;;;;;5135686;27;20491;-71
2022/06/12 12:54:42;;;;;;;6.70;2.60;;;;;;;;;;5135582;27;20571;-71
2022/06/12 12:57:10;;;;;;;6.30;3.27;;;;;;;;;;5135728;27;20428;-71
2022/06/12 12:59:39;;;;;;;5.30;2.80;;;;;;;;;;5134376;27;20527;-71
2022/06/12 13:02:16;;;;;;;4.07;2.40;;;;;;;;;;5134379;27;20519;-72
2022/06/12 13:04:44;;;;;;;4.77;2.53;;;;;;;;;;5135065;27;20489;-72
2022/06/12 13:07:17;;;;;;;5.30;3.37;;;;;;;;;;5135180;27;20518;-71
2022/06/12 13:09:52;;;;;;;6.93;2.67;;;;;;;;;;5135043;27;20947;-70
2022/06/12 13:12:43;;;;;;;7.50;3.10;;;;;;;;;;5135345;27;20464;-70
2022/06/12 13:15:20;;;;;;;8.20;2.70;;;;;;;;;;5110193;27;20483;-71
2022/06/12 13:17:51;;;;;;;6.07;2.40;;;;;;;;;;5135198;27;20479;-70
2022/06/12 13:20:23;;;;;;;6.43;2.57;;;;;;;;;;5134508;27;20477;-70
2022/06/12 13:22:58;;;;;;;4.33;2.57;;;;;;;;;;5134708;27;20512;-70
2022/06/12 13:25:26;;;;;;;5.93;2.70;;;;;;;;;;5135180;27;20441;-70
2022/06/12 13:27:54;;;;;;;9.33;3.70;;;;;;;;;;5134903;27;20477;-70
2022/06/12 13:30:25;;;;;;;4.93;3.00;;;;;;;;;;5134942;27;20532;-71
2022/06/12 13:32:52;;;;;;;6.20;2.53;;;;;;;;;;5134970;27;20900;-70
2022/06/12 13:35:21;;;;;;;8.90;2.77;;;;;;;;;;5134990;27;20515;-70
2022/06/12 13:37:50;;;;;;;4.73;3.10;;;;;;;;;;5134816;27;20544;-71
2022/06/12 13:40:24;;;;;;;4.47;2.80;;;;;;;;;;5134301;27;20522;-70
2022/06/12 13:42:52;;;;;;;7.87;3.53;;;;;;;;;;5134496;27;20511;-70
2022/06/12 13:45:20;;;;;;;6.43;2.90;;;;;;;;;;5134513;27;20442;-71
2022/06/12 13:47:49;;;;;;;4.00;2.10;;;;;;;;;;5134375;27;20860;-70
2022/06/12 13:50:20;;;;;;;7.10;2.67;;;;;;;;;;5134406;27;20976;-70
2022/06/12 13:52:51;;;;;;;5.33;2.97;;;;;;;;;;5135066;27;20420;-70
2022/06/12 13:55:23;;;;;;;3.57;2.40;;;;;;;;;;5134507;27;20435;-70
2022/06/12 13:57:51;;;;;;;4.03;2.20;;;;;;;;;;5134434;27;20487;-70
2022/06/12 14:00:27;;;;;;;10.40;2.37;;;;;;;;;;5133856;27;20990;-70
2022/06/12 14:02:56;;;;;;;6.57;2.40;;;;;;;;;;5134900;27;20505;-70
2022/06/12 14:05:25;;;;;;;5.53;2.40;;;;;;;;;;5134194;27;20442;-70
2022/06/12 14:07:52;;;;;;;3.67;2.00;;;;;;;;;;5134208;27;20526;-70
2022/06/12 14:10:23;;;;;;;6.43;2.67;;;;;;;;;;5133878;27;20442;-70
2022/06/12 14:12:50;;;;;;;5.03;2.47;;;;;;;;;;5134643;27;20510;-70
2022/06/12 14:15:27;;;;;;;6.67;2.57;;;;;;;;;;5134016;27;20531;-70
2022/06/12 14:17:57;;;;;;;3.40;1.90;;;;;;;;;;5133155;27;20900;-70
2022/06/12 14:20:26;;;;;;;4.63;2.63;;;;;;;;;;5133950;27;20627;-70
2022/06/12 14:22:56;;;;;;;6.17;2.60;;;;;;;;;;5133792;28;20938;-71
2022/06/12 14:25:25;;;;;;;6.00;2.53;;;;;;;;;;5134335;28;20805;-70
2022/06/12 14:27:56;;;;;;;4.70;2.30;;;;;;;;;;5133848;28;20951;-70
2022/06/12 14:30:39;;;;;;;6.57;2.60;;;;;;;;;;5133872;28;20452;-70
2022/06/12 14:33:21;;;;;;;5.10;2.27;;;;;;;;;;5133597;28;20442;-71
2022/06/12 14:35:50;;;;;;;7.47;2.23;;;;;;;;;;5133568;28;20458;-70
2022/06/12 14:38:19;;;;;;;6.90;2.43;;;;;;;;;;5133481;28;20536;-71
2022/06/12 14:40:47;;;;;;;4.67;2.10;;;;;;;;;;5133941;28;20836;-70
2022/06/12 14:43:17;;;;;;;6.90;2.30;;;;;;;;;;5133632;28;20450;-70
2022/06/12 14:45:45;;;;;;;4.07;2.00;;;;;;;;;;5133521;28;20490;-70
2022/06/12 14:48:17;;;;;;;5.60;2.20;;;;;;;;;;5133805;28;20512;-70
2022/06/12 14:50:44;;;;;;;6.97;2.40;;;;;;;;;;5133938;27;20487;-71
2022/06/12 14:53:13;;;;;;;6.27;2.30;;;;;;;;;;5133965;28;20501;-71
2022/06/12 14:55:41;;;;;;;5.03;2.33;;;;;;;;;;5134012;28;20455;-72
2022/06/12 14:58:13;;;;;;;6.07;2.73;;;;;;;;;;5133424;28;20508;-70
2022/06/12 15:00:40;;;;;;;5.63;2.40;;;;;;;;;;5133307;28;20497;-70
2022/06/12 15:03:10;;;;;;;9.37;2.77;;;;;;;;;;5133451;28;20528;-71
2022/06/12 15:05:38;;;;;;;4.67;2.67;;;;;;;;;;5133722;28;20439;-71
2022/06/12 15:08:05;;;;;;;8.47;2.70;;;;;;;;;;5133345;28;20446;-71
2022/06/12 15:10:34;;;;;;;4.00;2.40;;;;;;;;;;5133235;28;20439;-71